createdAt,value
2018-10-18T00:00:10.143Z,46.15
2018-10-18T00:02:39.817Z,46.02
2018-10-18T00:05:09.997Z,45.70
2018-10-18T00:07:39.675Z,45.45
2018-10-18T00:10:09.649Z,44.58
2018-10-18T00:12:39.300Z,44.63
2018-10-18T00:15:09.467Z,44.20
2018-10-18T00:17:45.371Z,44.30
2018-10-18T00:20:16.478Z,44.20
2018-10-18T00:22:46.569Z,43.68
2018-10-18T00:25:16.662Z,43.42
2018-10-18T00:27:46.317Z,42.43
2018-10-18T00:30:16.467Z,42.05
2018-10-18T00:32:46.347Z,40.10
2018-10-18T00:35:16.081Z,41.95
2018-10-18T00:37:46.539Z,42.45
2018-10-18T00:40:16.614Z,42.88
2018-10-18T00:42:46.349Z,41.53
2018-10-18T00:45:16.009Z,41.75
2018-10-18T00:47:45.764Z,40.43
2018-10-18T00:50:15.694Z,41.20
2018-10-18T00:52:45.550Z,40.30
2018-10-18T00:55:15.294Z,39.65
2018-10-18T00:57:45.279Z,40.52
2018-10-18T01:00:15.360Z,40.00
2018-10-18T01:02:45.095Z,40.15
2018-10-18T01:05:14.970Z,38.17
2018-10-18T01:07:44.645Z,39.25
2018-10-18T01:10:14.322Z,38.95
2018-10-18T01:12:44.173Z,39.10
2018-10-18T01:15:13.801Z,37.60
2018-10-18T01:17:43.509Z,37.35
2018-10-18T01:20:13.372Z,36.45
2018-10-18T01:22:43.073Z,38.73
2018-10-18T01:25:12.813Z,35.70
2018-10-18T01:27:42.569Z,36.17
2018-10-18T01:30:12.248Z,36.75
2018-10-18T01:32:41.932Z,36.38
2018-10-18T01:35:11.620Z,34.23
2018-10-18T01:37:41.273Z,35.70
2018-10-18T01:40:10.987Z,37.17
2018-10-18T01:42:40.622Z,35.10
2018-10-18T01:45:10.371Z,34.43
2018-10-18T01:47:40.121Z,34.03
2018-10-18T01:50:10.405Z,35.90
2018-10-18T01:52:40.103Z,33.67
2018-10-18T01:55:10.018Z,33.35
2018-10-18T01:57:39.745Z,32.63
2018-10-18T02:00:09.780Z,33.80
2018-10-18T02:02:39.594Z,32.63
2018-10-18T02:05:09.290Z,33.18
2018-10-18T02:07:38.966Z,32.40
2018-10-18T02:10:08.975Z,33.40
2018-10-18T02:12:38.697Z,32.05
2018-10-18T02:15:10.379Z,32.13
2018-10-18T02:17:40.589Z,31.40
2018-10-18T02:20:11.345Z,32.03
2018-10-18T02:22:42.502Z,31.57
2018-10-18T02:25:12.413Z,32.58
2018-10-18T02:27:42.357Z,30.75
2018-10-18T02:30:12.118Z,30.62
2018-10-18T02:32:41.854Z,31.60
2018-10-18T02:35:11.594Z,30.05
2018-10-18T02:37:41.637Z,29.65
2018-10-18T02:40:11.320Z,31.10
2018-10-18T02:42:41.066Z,28.65
2018-10-18T02:45:10.982Z,29.55
2018-10-18T02:47:40.649Z,29.80
2018-10-18T02:50:10.314Z,28.77
2018-10-18T02:52:39.957Z,29.48
2018-10-18T02:55:09.655Z,28.92
2018-10-18T02:57:39.453Z,28.35
2018-10-18T03:00:09.217Z,27.90
2018-10-18T03:02:38.818Z,27.85
2018-10-18T03:05:08.406Z,28.20
2018-10-18T03:07:38.107Z,28.55
2018-10-18T03:10:08.241Z,27.73
2018-10-18T03:12:37.950Z,27.20
2018-10-18T03:15:08.469Z,27.32
2018-10-18T03:17:38.161Z,25.85
2018-10-18T03:20:07.773Z,26.68
2018-10-18T03:22:37.413Z,26.73
2018-10-18T03:25:08.133Z,25.62
2018-10-18T03:27:37.957Z,26.02
2018-10-18T03:30:08.315Z,24.75
2018-10-18T03:32:37.961Z,25.15
2018-10-18T03:35:08.398Z,24.55
2018-10-18T03:37:38.190Z,25.52
2018-10-18T03:40:08.552Z,24.60
2018-10-18T03:42:38.215Z,25.17
2018-10-18T03:45:08.030Z,24.77
2018-10-18T03:47:37.734Z,24.37
2018-10-18T03:50:07.285Z,24.30
2018-10-18T03:52:37.046Z,24.00
2018-10-18T03:55:07.043Z,24.23
2018-10-18T03:57:36.734Z,25.10
2018-10-18T04:00:07.336Z,24.25
2018-10-18T04:02:37.029Z,23.57
2018-10-18T04:05:07.365Z,23.05
2018-10-18T04:07:37.065Z,23.35
2018-10-18T04:10:07.137Z,22.50
2018-10-18T04:12:36.824Z,21.85
2018-10-18T04:18:24.920Z,22.37
2018-10-18T04:20:55.046Z,22.02
2018-10-18T04:23:31.109Z,22.05
2018-10-18T04:26:01.478Z,21.60
2018-10-18T04:28:31.683Z,21.25
2018-10-18T04:31:02.035Z,21.33
2018-10-18T04:33:32.529Z,20.40
2018-10-18T04:36:02.294Z,21.07
2018-10-18T04:38:31.785Z,21.80
2018-10-18T04:41:01.690Z,25.10
2018-10-18T04:43:31.449Z,27.77
2018-10-18T04:46:01.145Z,30.17
2018-10-18T04:48:30.997Z,28.20
2018-10-18T04:51:00.593Z,27.48
2018-10-18T04:53:30.249Z,26.00
2018-10-18T04:56:00.031Z,29.45
2018-10-18T04:58:29.658Z,26.75
2018-10-18T05:00:59.441Z,29.57
2018-10-18T05:03:29.109Z,27.25
2018-10-18T05:06:02.098Z,25.92
2018-10-18T05:08:32.119Z,63.48
2018-10-18T05:11:01.789Z,41.30
2018-10-18T05:13:31.862Z,39.40
2018-10-18T05:16:01.619Z,48.33
2018-10-18T05:18:31.389Z,33.15
2018-10-18T05:21:01.070Z,44.88
2018-10-18T05:23:30.777Z,40.63
2018-10-18T05:26:00.750Z,37.63
2018-10-18T05:28:30.423Z,47.05
2018-10-18T05:31:00.186Z,46.37
2018-10-18T05:33:29.850Z,44.77
2018-10-18T05:35:59.398Z,53.68
2018-10-18T05:38:29.053Z,56.58
2018-10-18T05:40:58.444Z,45.38
2018-10-18T05:43:27.876Z,41.05
2018-10-18T05:45:58.061Z,56.77
2018-10-18T05:48:27.733Z,65.12
2018-10-18T05:50:57.429Z,83.10
2018-10-18T05:53:27.201Z,86.37
2018-10-18T05:55:56.866Z,61.98
2018-10-18T05:58:26.622Z,76.42
2018-10-18T06:00:56.351Z,65.97
2018-10-18T06:03:26.074Z,68.70
2018-10-18T06:05:55.854Z,69.30
2018-10-18T06:08:25.431Z,80.95
2018-10-18T06:11:06.101Z,76.42
2018-10-18T06:13:35.810Z,77.65
2018-10-18T06:16:05.673Z,72.72
2018-10-18T06:18:35.505Z,75.20
2018-10-18T06:21:05.225Z,64.97
2018-10-18T06:23:35.298Z,61.23
2018-10-18T06:26:05.213Z,61.02
2018-10-18T06:28:35.046Z,53.65
2018-10-18T06:31:04.677Z,55.78
2018-10-18T06:33:34.502Z,54.60
2018-10-18T06:36:04.328Z,53.83
2018-10-18T06:38:34.255Z,48.02
2018-10-18T06:41:04.738Z,46.20
2018-10-18T06:43:37.786Z,47.98
2018-10-18T06:46:09.611Z,44.98
2018-10-18T06:48:39.516Z,42.00
2018-10-18T06:51:10.422Z,40.88
2018-10-18T06:53:40.826Z,41.42
2018-10-18T06:56:10.666Z,42.78
2018-10-18T06:58:40.367Z,42.55
2018-10-18T07:01:10.453Z,42.78
2018-10-18T07:03:40.149Z,40.48
2018-10-18T07:06:09.844Z,39.33
2018-10-18T07:08:39.432Z,38.95
2018-10-18T07:11:09.414Z,52.85
2018-10-18T07:13:38.810Z,61.48
2018-10-18T07:16:08.266Z,74.50
2018-10-18T07:18:37.710Z,56.92
2018-10-18T07:21:07.513Z,58.30
2018-10-18T07:23:37.606Z,56.08
2018-10-18T07:26:07.509Z,54.83
2018-10-18T07:28:37.153Z,55.55
2018-10-18T07:31:06.869Z,56.37
2018-10-18T07:33:36.526Z,50.65
2018-10-18T07:36:06.189Z,47.10
2018-10-18T07:38:35.774Z,47.38
2018-10-18T07:41:05.597Z,51.00
2018-10-18T07:43:35.433Z,46.53
2018-10-18T07:46:05.150Z,45.35
2018-10-18T07:48:34.853Z,45.40
2018-10-18T07:51:04.529Z,44.88
2018-10-18T07:53:34.418Z,43.98
2018-10-18T07:56:03.967Z,45.20
2018-10-18T07:58:33.614Z,44.27
2018-10-18T08:01:03.320Z,41.60
2018-10-18T08:03:32.961Z,41.68
2018-10-18T08:06:02.738Z,38.67
2018-10-18T08:08:32.386Z,39.95
2018-10-18T08:11:02.186Z,39.35
2018-10-18T08:13:31.834Z,39.40
2018-10-18T08:16:01.866Z,39.53
2018-10-18T08:18:31.450Z,37.73
2018-10-18T08:21:01.286Z,36.45
2018-10-18T08:23:30.942Z,36.53
2018-10-18T08:26:00.791Z,36.75
2018-10-18T08:28:30.472Z,37.17
2018-10-18T08:31:00.232Z,35.38
2018-10-18T08:33:29.949Z,35.13
2018-10-18T08:35:59.528Z,34.33
2018-10-18T08:38:29.546Z,35.10
2018-10-18T08:40:59.198Z,34.50
2018-10-18T08:43:28.910Z,35.05
2018-10-18T08:45:58.654Z,34.35
2018-10-18T08:48:28.217Z,33.40
2018-10-18T08:50:57.984Z,32.78
2018-10-18T08:53:27.569Z,32.80
2018-10-18T08:55:57.257Z,34.27
2018-10-18T08:58:26.945Z,33.15
2018-10-18T09:00:57.065Z,34.08
2018-10-18T09:03:26.777Z,31.62
2018-10-18T09:05:56.790Z,31.50
2018-10-18T09:08:26.501Z,31.77
2018-10-18T09:10:56.234Z,32.15
2018-10-18T09:13:26.311Z,31.65
2018-10-18T09:15:56.125Z,30.20
2018-10-18T09:18:26.156Z,32.00
2018-10-18T09:20:55.901Z,31.82
2018-10-18T09:23:25.465Z,30.72
2018-10-18T09:25:55.469Z,31.20
2018-10-18T09:28:25.222Z,30.57
2018-10-18T09:30:54.964Z,31.00
2018-10-18T09:33:24.741Z,28.30
2018-10-18T09:35:54.553Z,26.73
2018-10-18T09:38:24.288Z,30.27
2018-10-18T09:40:53.967Z,29.30
2018-10-18T09:43:23.662Z,28.65
2018-10-18T09:45:53.453Z,29.67
2018-10-18T09:48:23.202Z,27.50
2018-10-18T09:50:52.978Z,26.40
2018-10-18T09:53:22.739Z,29.02
2018-10-18T09:55:52.444Z,29.82
2018-10-18T09:58:22.090Z,24.82
2018-10-18T10:00:56.841Z,27.25
2018-10-18T10:03:26.794Z,29.65
2018-10-18T10:05:56.435Z,28.32
2018-10-18T10:08:26.172Z,30.00
2018-10-18T10:10:55.886Z,28.75
2018-10-18T10:13:25.667Z,29.20
2018-10-18T10:15:55.266Z,27.52
2018-10-18T10:18:25.066Z,28.00
2018-10-18T10:20:54.786Z,28.87
2018-10-18T10:23:24.473Z,29.12
2018-10-18T10:25:54.158Z,26.80
2018-10-18T10:28:23.910Z,28.23
2018-10-18T10:30:53.631Z,27.60
2018-10-18T10:33:23.515Z,27.98
2018-10-18T10:35:53.244Z,28.62
2018-10-18T10:38:23.085Z,26.77
2018-10-18T10:40:52.904Z,26.77
2018-10-18T10:43:22.608Z,27.25
2018-10-18T10:45:52.431Z,24.12
2018-10-18T10:48:22.078Z,27.10
2018-10-18T10:50:51.835Z,27.22
2018-10-18T10:53:21.561Z,26.75
2018-10-18T10:55:51.977Z,26.37
2018-10-18T10:58:21.614Z,26.57
2018-10-18T11:01:23.049Z,25.48
2018-10-18T11:03:54.020Z,26.62
2018-10-18T11:06:23.996Z,26.23
2018-10-18T11:08:53.563Z,27.80
2018-10-18T11:11:23.697Z,25.70
2018-10-18T11:13:53.418Z,26.60
2018-10-18T11:16:23.141Z,27.07
2018-10-18T11:18:52.825Z,25.25
2018-10-18T11:21:22.538Z,25.25
2018-10-18T11:23:52.365Z,26.23
2018-10-18T11:26:22.071Z,25.62
2018-10-18T11:28:51.758Z,26.23
2018-10-18T11:31:21.475Z,25.27
2018-10-18T11:33:51.127Z,25.27
2018-10-18T11:36:20.835Z,26.42
2018-10-18T11:38:50.484Z,26.02
2018-10-18T11:41:20.197Z,24.12
2018-10-18T11:43:49.807Z,25.05
2018-10-18T11:46:19.473Z,24.55
2018-10-18T11:48:49.119Z,24.67
2018-10-18T11:51:18.877Z,24.72
2018-10-18T11:53:48.796Z,24.57
2018-10-18T11:56:18.629Z,24.65
2018-10-18T11:58:48.508Z,24.10
2018-10-18T12:01:18.320Z,22.87
2018-10-18T12:03:48.002Z,24.50
2018-10-18T12:06:17.581Z,23.95
2018-10-18T12:08:47.297Z,23.00
2018-10-18T12:11:17.041Z,24.23
2018-10-18T12:13:47.020Z,23.30
2018-10-18T12:16:16.722Z,24.90
2018-10-18T12:18:46.745Z,23.95
2018-10-18T12:21:16.712Z,21.70
2018-10-18T12:23:46.735Z,23.07
2018-10-18T12:26:16.647Z,22.42
2018-10-18T12:28:46.359Z,22.22
2018-10-18T12:31:16.094Z,22.52
2018-10-18T12:33:45.762Z,23.60
2018-10-18T12:36:15.522Z,22.65
2018-10-18T12:38:45.317Z,21.68
2018-10-18T12:41:15.760Z,22.15
2018-10-18T12:43:45.353Z,22.45
2018-10-18T12:46:15.030Z,22.13
2018-10-18T12:48:45.146Z,22.02
2018-10-18T12:51:14.750Z,22.27
2018-10-18T12:53:44.513Z,22.62
2018-10-18T12:56:14.261Z,21.77
2018-10-18T12:58:43.906Z,21.95
2018-10-18T13:01:13.641Z,21.73
2018-10-18T13:03:43.339Z,21.80
2018-10-18T13:06:13.036Z,21.52
2018-10-18T13:08:42.743Z,21.50
2018-10-18T13:11:12.446Z,21.05
2018-10-18T13:13:42.086Z,21.10
2018-10-18T13:16:11.778Z,21.02
2018-10-18T13:18:41.430Z,20.70
2018-10-18T13:21:11.142Z,19.98
2018-10-18T13:23:41.078Z,20.92
2018-10-18T13:26:10.839Z,19.67
2018-10-18T13:28:40.505Z,20.90
2018-10-18T13:31:10.075Z,21.17
2018-10-18T13:33:39.777Z,20.65
2018-10-18T13:36:09.797Z,20.35
2018-10-18T13:38:39.540Z,20.40
2018-10-18T13:41:09.141Z,20.60
2018-10-18T13:43:38.857Z,20.85
2018-10-18T13:46:08.408Z,19.70
2018-10-18T13:48:38.166Z,20.20
2018-10-18T13:51:08.490Z,20.70
2018-10-18T13:53:42.430Z,20.35
2018-10-18T13:56:13.264Z,19.98
2018-10-18T13:58:43.572Z,19.57
2018-10-18T14:01:13.298Z,19.87
2018-10-18T14:03:43.249Z,20.68
2018-10-18T14:06:12.877Z,19.32
2018-10-18T14:08:42.685Z,19.25
2018-10-18T14:11:12.413Z,19.87
2018-10-18T14:13:42.061Z,19.40
2018-10-18T14:16:11.946Z,19.42
2018-10-18T14:18:41.858Z,18.32
2018-10-18T14:21:11.506Z,19.02
2018-10-18T14:23:41.398Z,18.67
2018-10-18T14:26:11.072Z,18.90
2018-10-18T14:28:40.737Z,18.65
2018-10-18T14:31:10.694Z,19.00
2018-10-18T14:33:40.682Z,17.95
2018-10-18T14:36:10.338Z,17.82
2018-10-18T14:38:40.117Z,18.32
2018-10-18T14:41:09.597Z,17.70
2018-10-18T14:43:39.392Z,17.67
2018-10-18T14:46:09.032Z,18.20
2018-10-18T14:48:38.881Z,18.42
2018-10-18T14:51:09.196Z,18.12
2018-10-18T14:53:38.897Z,18.60
2018-10-18T14:56:08.577Z,18.23
2018-10-18T14:58:38.294Z,18.12
2018-10-18T15:01:08.079Z,17.95
2018-10-18T15:03:37.826Z,18.87
2018-10-18T15:06:07.315Z,19.12
2018-10-18T15:08:37.101Z,18.25
2018-10-18T15:11:07.218Z,18.48
2018-10-18T15:13:37.381Z,19.00
2018-10-18T15:16:07.054Z,18.48
2018-10-18T15:18:36.710Z,18.77
2018-10-18T15:21:06.742Z,18.57
2018-10-18T15:23:36.403Z,18.35
2018-10-18T15:26:06.373Z,18.62
2018-10-18T15:28:36.022Z,20.20
2018-10-18T15:31:05.803Z,19.65
2018-10-18T15:33:35.786Z,18.73
2018-10-18T15:36:05.526Z,19.25
2018-10-18T15:38:35.330Z,20.08
2018-10-18T15:41:05.020Z,20.05
2018-10-18T15:43:34.710Z,20.15
2018-10-18T15:46:04.358Z,19.90
2018-10-18T15:48:34.759Z,19.77
2018-10-18T15:51:05.575Z,20.72
2018-10-18T15:53:35.333Z,19.35
2018-10-18T15:56:05.118Z,19.57
2018-10-18T15:58:34.812Z,20.77
2018-10-18T16:01:04.484Z,21.90
2018-10-18T16:03:34.198Z,20.75
2018-10-18T16:06:03.955Z,22.00
2018-10-18T16:08:33.654Z,19.98
2018-10-18T16:11:03.410Z,20.72
2018-10-18T16:13:33.492Z,20.85
2018-10-18T16:16:03.183Z,21.42
2018-10-18T16:18:33.006Z,20.40
2018-10-18T16:21:02.958Z,21.00
2018-10-18T16:23:33.983Z,20.80
2018-10-18T16:26:04.004Z,20.72
2018-10-18T16:28:34.575Z,20.80
2018-10-18T16:31:04.549Z,21.27
2018-10-18T16:33:34.238Z,21.77
2018-10-18T16:36:03.872Z,21.25
2018-10-18T16:38:34.066Z,21.50
2018-10-18T16:41:03.868Z,22.22
2018-10-18T16:43:33.406Z,21.10
2018-10-18T16:46:02.994Z,21.52
2018-10-18T16:48:33.033Z,21.57
2018-10-18T16:51:02.703Z,21.50
2018-10-18T16:53:32.537Z,21.10
2018-10-18T16:56:02.469Z,20.43
2018-10-18T16:58:32.131Z,20.92
2018-10-18T17:01:02.007Z,20.15
2018-10-18T17:03:31.658Z,20.95
2018-10-18T17:06:01.468Z,20.40
2018-10-18T17:08:31.730Z,20.17
2018-10-18T17:11:01.954Z,21.87
2018-10-18T17:13:31.919Z,20.10
2018-10-18T17:16:01.766Z,21.45
2018-10-18T17:18:31.487Z,20.20
2018-10-18T17:21:01.272Z,21.52
2018-10-18T17:23:30.933Z,19.73
2018-10-18T17:26:00.634Z,20.10
2018-10-18T17:28:30.233Z,20.32
2018-10-18T17:31:00.069Z,22.13
2018-10-18T17:33:29.768Z,23.22
2018-10-18T17:35:59.532Z,26.23
2018-10-18T17:38:29.437Z,24.85
2018-10-18T17:40:59.451Z,25.75
2018-10-18T17:43:29.384Z,22.40
2018-10-18T17:45:59.526Z,23.35
2018-10-18T17:48:29.140Z,22.80
2018-10-18T17:51:00.129Z,22.20
2018-10-18T17:53:29.918Z,22.42
2018-10-18T17:55:59.585Z,21.90
2018-10-18T17:58:29.326Z,20.90
2018-10-18T18:00:59.026Z,22.15
2018-10-18T18:03:29.040Z,22.07
2018-10-18T18:05:58.801Z,22.05
2018-10-18T18:08:29.059Z,21.93
2018-10-18T18:10:58.891Z,21.85
2018-10-18T18:13:28.738Z,21.40
2018-10-18T18:15:58.569Z,22.22
2018-10-18T18:18:28.511Z,22.07
2018-10-18T18:20:58.457Z,25.48
2018-10-18T18:23:28.266Z,23.25
2018-10-18T18:25:58.114Z,24.52
2018-10-18T18:28:28.097Z,24.25
2018-10-18T18:30:57.922Z,23.42
2018-10-18T18:33:27.591Z,24.55
2018-10-18T18:35:57.474Z,23.40
2018-10-18T18:38:27.381Z,24.07
2018-10-18T18:40:57.119Z,23.70
2018-10-18T18:43:27.383Z,23.18
2018-10-18T18:45:57.623Z,24.32
2018-10-18T18:48:27.380Z,22.40
2018-10-18T18:50:57.442Z,38.38
2018-10-18T18:53:27.240Z,35.40
2018-10-18T18:55:57.162Z,42.70
2018-10-18T18:58:26.943Z,36.93
2018-10-18T19:00:56.753Z,35.75
2018-10-18T19:03:26.458Z,32.67
2018-10-18T19:05:56.350Z,32.73
2018-10-18T19:08:26.022Z,30.97
2018-10-18T19:10:55.815Z,29.30
2018-10-18T19:13:25.887Z,30.05
2018-10-18T19:15:56.355Z,30.55
2018-10-18T19:18:26.033Z,28.25
2018-10-18T19:20:55.727Z,28.27
2018-10-18T19:23:25.746Z,28.73
2018-10-18T19:26:07.657Z,28.52
2018-10-18T19:28:37.491Z,28.32
2018-10-18T19:31:09.391Z,31.77
2018-10-18T19:33:39.112Z,27.37
2018-10-18T19:36:10.350Z,30.30
2018-10-18T19:38:40.198Z,30.60
2018-10-18T19:41:09.769Z,30.48
2018-10-18T19:43:40.036Z,28.35
2018-10-18T19:46:10.604Z,28.77
2018-10-18T19:48:40.178Z,27.90
2018-10-18T19:51:10.052Z,27.48
2018-10-18T19:53:40.019Z,26.48
2018-10-18T19:56:11.780Z,27.50
2018-10-18T19:58:41.826Z,28.07
2018-10-18T20:01:12.397Z,26.42
2018-10-18T20:03:42.678Z,32.50
2018-10-18T20:06:12.398Z,32.58
2018-10-18T20:08:42.125Z,36.55
2018-10-18T20:11:12.012Z,36.33
2018-10-18T20:13:41.806Z,37.88
2018-10-18T20:16:12.437Z,39.67
2018-10-18T20:18:42.462Z,38.23
2018-10-18T20:21:12.216Z,38.40
2018-10-18T20:23:41.772Z,39.50
2018-10-18T20:26:12.059Z,41.23
2018-10-18T20:28:41.782Z,39.15
2018-10-18T20:31:11.656Z,41.90
2018-10-18T20:33:41.351Z,40.75
2018-10-18T20:36:11.066Z,41.28
2018-10-18T20:38:40.794Z,43.40
2018-10-18T20:41:10.521Z,95.00
2018-10-18T20:43:40.160Z,65.30
2018-10-18T20:46:09.702Z,57.43
2018-10-18T20:48:39.770Z,55.78
2018-10-18T20:51:09.468Z,54.35
2018-10-18T20:53:39.182Z,55.08
2018-10-18T20:56:09.086Z,53.58
2018-10-18T20:58:39.181Z,51.92
2018-10-18T21:01:08.739Z,54.53
2018-10-18T21:03:38.470Z,53.50
2018-10-18T21:06:08.188Z,54.90
2018-10-18T21:08:37.909Z,54.48
2018-10-18T21:11:08.157Z,57.10
2018-10-18T21:13:37.794Z,54.40
2018-10-18T21:16:07.689Z,53.80
2018-10-18T21:18:37.381Z,138.00
2018-10-18T21:21:07.204Z,86.28
2018-10-18T21:23:36.989Z,102.38
2018-10-18T21:26:06.925Z,88.37
2018-10-18T21:28:36.701Z,102.30
2018-10-18T21:31:06.473Z,96.17
2018-10-18T21:33:36.138Z,88.70
2018-10-18T21:36:05.631Z,79.58
2018-10-18T21:38:35.350Z,84.30
2018-10-18T21:41:05.120Z,84.83
2018-10-18T21:43:34.918Z,87.10
2018-10-18T21:46:06.633Z,82.42
2018-10-18T21:48:37.775Z,88.90
2018-10-18T21:51:07.558Z,85.92
2018-10-18T21:53:37.266Z,85.28
2018-10-18T21:56:06.793Z,87.30
2018-10-18T21:58:36.440Z,84.80
2018-10-18T22:01:06.138Z,82.70
2018-10-18T22:03:35.769Z,86.72
2018-10-18T22:06:05.800Z,83.65
2018-10-18T22:08:35.545Z,83.95
2018-10-18T22:11:05.479Z,84.22
2018-10-18T22:13:35.185Z,84.13
2018-10-18T22:16:04.812Z,85.53
2018-10-18T22:18:34.487Z,81.12
2018-10-18T22:21:04.243Z,82.65
2018-10-18T22:23:34.021Z,83.75
2018-10-18T22:26:03.742Z,85.42
2018-10-18T22:28:33.789Z,84.37
2018-10-18T22:31:03.622Z,83.22
2018-10-18T22:33:33.283Z,81.22
2018-10-18T22:36:02.812Z,80.28
2018-10-18T22:38:32.465Z,84.15
2018-10-18T22:41:02.237Z,81.42
2018-10-18T22:43:31.881Z,82.53
2018-10-18T22:46:01.622Z,82.55
2018-10-18T22:48:32.177Z,81.82
2018-10-18T22:51:02.469Z,82.55
2018-10-18T22:53:31.957Z,79.62
2018-10-18T22:56:01.546Z,81.80
2018-10-18T22:58:31.233Z,81.53
2018-10-18T23:01:00.843Z,80.60
2018-10-18T23:03:30.530Z,80.92
2018-10-18T23:06:00.609Z,80.25
2018-10-18T23:08:30.270Z,78.45
2018-10-18T23:11:00.387Z,79.87
2018-10-18T23:13:30.350Z,80.62
2018-10-18T23:16:00.082Z,77.17
2018-10-18T23:18:30.059Z,78.87
2018-10-18T23:20:59.719Z,75.80
2018-10-18T23:23:29.442Z,76.33
2018-10-18T23:25:59.365Z,75.35
2018-10-18T23:28:29.288Z,76.50
2018-10-18T23:30:59.019Z,77.00
2018-10-18T23:33:28.678Z,76.22
2018-10-18T23:35:58.382Z,75.10
2018-10-18T23:38:28.418Z,75.83
2018-10-18T23:40:58.103Z,72.90
2018-10-18T23:43:27.753Z,75.08
2018-10-18T23:45:57.478Z,75.90
2018-10-18T23:48:27.225Z,74.03
2018-10-18T23:50:56.867Z,71.17
2018-10-18T23:53:28.683Z,70.97
2018-10-18T23:55:59.753Z,72.42
2018-10-18T23:58:29.445Z,72.08
